Time;durP1;ratioP1;P1;durP2;ratioP2;P2;SDS_P1;SDS_P2;PMS_P1;PMS_P2;Temp;Humidity;BMP_temperature;BMP_pressure;BME280_temperature;BME280_humidity;BME280_pressure;Samples;Min_cycle;Max_cycle;Signal;HPM_P1;HPM_P2
2023/01/07 00:01:17;;;;;;;68.88;51.13;;;16.80;85.60;;;;;;4924640;28;90818;-51
2023/01/07 00:03:47;;;;;;;68.97;51.40;;;16.80;85.80;;;;;;4906301;28;93356;-50
2023/01/07 00:06:15;;;;;;;70.05;51.33;;;16.80;85.50;;;;;;4928947;28;92290;-55
2023/01/07 00:08:42;;;;;;;70.00;51.53;;;16.80;85.70;;;;;;4920102;28;92231;-51
2023/01/07 00:11:10;;;;;;;73.25;51.55;;;16.80;85.30;;;;;;4924593;28;92420;-50
2023/01/07 00:13:36;;;;;;;68.35;51.00;;;16.80;85.40;;;;;;4924728;28;90836;-52
2023/01/07 00:16:07;;;;;;;69.47;51.72;;;16.70;85.20;;;;;;4915764;28;91070;-49
2023/01/07 00:18:34;;;;;;;69.20;50.92;;;16.80;85.50;;;;;;4921352;28;89959;-48
2023/01/07 00:21:02;;;;;;;68.82;51.17;;;16.70;85.20;;;;;;4917605;28;95513;-53
2023/01/07 00:23:29;;;;;;;69.13;51.35;;;16.70;85.30;;;;;;4922407;28;92792;-53
2023/01/07 00:26:01;;;;;;;68.90;50.92;;;16.70;85.20;;;;;;4925111;28;91920;-52
2023/01/07 00:28:27;;;;;;;69.30;50.92;;;16.70;85.30;;;;;;4922573;28;89757;-46
2023/01/07 00:31:01;;;;;;;69.57;51.25;;;16.70;85.30;;;;;;4943735;28;91487;-51
2023/01/07 00:33:27;;;;;;;69.03;50.63;;;16.70;85.30;;;;;;4919556;28;92701;-52
2023/01/07 00:36:01;;;;;;;69.15;51.70;;;16.70;85.20;;;;;;4912300;28;91846;-52
2023/01/07 00:38:27;;;;;;;68.13;50.78;;;16.70;84.90;;;;;;4919049;28;89702;-52
2023/01/07 00:40:53;;;;;;;69.38;51.00;;;16.70;85.00;;;;;;4922011;28;96298;-49
2023/01/07 00:43:18;;;;;;;69.18;51.00;;;16.70;85.00;;;;;;4920867;28;90707;-54
2023/01/07 00:45:44;;;;;;;70.75;51.30;;;16.60;85.00;;;;;;4924812;28;91848;-52
2023/01/07 00:48:10;;;;;;;68.72;50.83;;;16.70;84.90;;;;;;4922680;28;95288;-51
2023/01/07 00:50:37;;;;;;;68.50;51.03;;;16.70;84.90;;;;;;4919786;28;93628;-48
2023/01/07 00:53:03;;;;;;;67.63;50.97;;;16.60;84.70;;;;;;4914087;28;90702;-49
2023/01/07 00:55:29;;;;;;;68.20;50.88;;;16.70;84.70;;;;;;4911575;28;89952;-51
2023/01/07 00:57:55;;;;;;;67.88;51.25;;;16.60;84.60;;;;;;4933603;28;90956;-50
2023/01/07 01:00:22;;;;;;;68.45;50.80;;;16.60;84.60;;;;;;4926689;28;90002;-52
2023/01/07 01:02:49;;;;;;;68.40;50.63;;;16.60;84.60;;;;;;4927987;28;90818;-50
2023/01/07 01:05:15;;;;;;;69.15;51.05;;;16.60;84.50;;;;;;4914393;28;91931;-51
2023/01/07 01:07:41;;;;;;;68.80;50.53;;;16.60;84.60;;;;;;4923325;28;92598;-52
2023/01/07 01:10:10;;;;;;;68.93;50.92;;;16.60;84.40;;;;;;4920143;28;91500;-51
2023/01/07 01:12:36;;;;;;;68.90;50.85;;;16.60;84.30;;;;;;4912485;28;91458;-48
2023/01/07 01:15:07;;;;;;;68.28;50.75;;;16.60;84.30;;;;;;4923759;28;91149;-52
2023/01/07 01:17:33;;;;;;;68.68;50.88;;;16.60;84.30;;;;;;4923761;28;90717;-51
2023/01/07 01:19:59;;;;;;;67.78;50.88;;;16.60;84.40;;;;;;4924310;28;95179;-53
2023/01/07 01:22:25;;;;;;;67.88;50.72;;;16.50;84.20;;;;;;4922882;28;91325;-47
2023/01/07 01:24:51;;;;;;;67.78;50.05;;;16.60;84.20;;;;;;4926913;28;90468;-52
2023/01/07 01:27:17;;;;;;;69.20;51.17;;;16.60;84.20;;;;;;4917007;28;91526;-52
2023/01/07 01:29:43;;;;;;;68.28;50.70;;;16.50;84.10;;;;;;4918041;28;91107;-54
2023/01/07 01:32:09;;;;;;;68.00;50.90;;;16.50;83.90;;;;;;4913335;28;90810;-47
2023/01/07 01:34:34;;;;;;;68.82;50.65;;;16.50;84.00;;;;;;4912882;28;91746;-50
2023/01/07 01:37:00;;;;;;;67.43;51.05;;;16.50;84.10;;;;;;4916958;28;89844;-55
2023/01/07 01:39:25;;;;;;;70.15;50.67;;;16.50;84.10;;;;;;4923539;28;91904;-49
2023/01/07 01:41:51;;;;;;;68.32;50.80;;;16.50;83.90;;;;;;4919604;28;90093;-50
2023/01/07 01:44:36;;;;;;;68.10;50.90;;;16.50;83.70;;;;;;4913288;28;90740;-51
2023/01/07 01:47:07;;;;;;;68.85;50.90;;;16.50;83.90;;;;;;4910505;28;91576;-47
2023/01/07 01:49:39;;;;;;;68.88;51.08;;;16.50;83.90;;;;;;4917777;28;91503;-50
2023/01/07 01:52:12;;;;;;;68.28;50.67;;;16.50;83.80;;;;;;4926693;28;90526;-47
2023/01/07 01:54:40;;;;;;;68.97;51.20;;;16.50;83.80;;;;;;4924883;28;91857;-53
2023/01/07 01:57:07;;;;;;;68.35;50.63;;;16.40;83.80;;;;;;4916316;28;90584;-54
2023/01/07 01:59:38;;;;;;;69.28;51.15;;;16.40;84.00;;;;;;4924588;28;90262;-54
2023/01/07 02:02:05;;;;;;;67.60;51.05;;;16.40;83.90;;;;;;4920796;28;93256;-54
2023/01/07 02:04:33;;;;;;;67.78;51.05;;;16.40;84.50;;;;;;4914043;28;89834;-52
2023/01/07 02:07:02;;;;;;;67.88;50.63;;;16.40;83.80;;;;;;4917862;28;92937;-50
2023/01/07 02:09:28;;;;;;;68.03;50.88;;;16.40;83.70;;;;;;4913849;28;93621;-50
2023/01/07 02:12:02;;;;;;;67.32;50.33;;;16.40;83.80;;;;;;4925178;28;91690;-52
2023/01/07 02:14:37;;;;;;;68.95;51.03;;;16.40;83.90;;;;;;4916345;28;95140;-52
2023/01/07 02:17:33;;;;;;;69.43;50.85;;;16.40;83.80;;;;;;4909801;28;92867;-52
2023/01/07 02:20:46;;;;;;;67.55;50.75;;;16.40;83.80;;;;;;4917495;28;91523;-53
2023/01/07 02:23:43;;;;;;;66.97;50.65;;;16.40;83.80;;;;;;4939419;28;90030;-53
2023/01/07 02:26:33;;;;;;;67.68;50.83;;;16.40;83.70;;;;;;4911950;28;91929;-45
2023/01/07 02:29:13;;;;;;;67.35;50.13;;;16.40;83.70;;;;;;4923569;28;91012;-53
2023/01/07 02:32:00;;;;;;;69.20;51.15;;;16.40;83.80;;;;;;4909795;28;90938;-50
2023/01/07 02:34:38;;;;;;;67.47;50.58;;;16.30;83.60;;;;;;4922295;28;89674;-52
2023/01/07 02:37:22;;;;;;;68.05;50.70;;;16.30;83.60;;;;;;4931895;28;89521;-50
2023/01/07 02:40:07;;;;;;;67.88;50.78;;;16.30;83.60;;;;;;4938980;28;92809;-52
2023/01/07 02:42:56;;;;;;;67.63;50.67;;;16.30;83.60;;;;;;4912606;28;93556;-51
2023/01/07 02:45:38;;;;;;;67.57;50.80;;;16.30;83.50;;;;;;4912306;28;90479;-49
2023/01/07 02:48:10;;;;;;;68.50;50.58;;;16.30;83.50;;;;;;4917699;28;90733;-53
2023/01/07 02:50:36;;;;;;;68.97;50.70;;;16.30;83.40;;;;;;4916532;28;90877;-51
2023/01/07 02:53:01;;;;;;;67.60;50.45;;;16.30;83.40;;;;;;4924389;28;90689;-52
2023/01/07 02:55:33;;;;;;;66.93;50.42;;;16.30;83.40;;;;;;4930050;28;90191;-53
2023/01/07 02:58:02;;;;;;;69.85;50.88;;;16.30;83.40;;;;;;4929383;28;90482;-52
2023/01/07 03:00:45;;;;;;;67.82;50.50;;;16.30;83.30;;;;;;4919601;28;93539;-52
2023/01/07 03:03:24;;;;;;;67.03;50.28;;;16.30;83.30;;;;;;4919394;28;91551;-47
2023/01/07 03:05:53;;;;;;;67.35;50.85;;;16.30;83.40;;;;;;4921730;28;92582;-53
2023/01/07 03:08:34;;;;;;;67.22;50.42;;;16.30;83.30;;;;;;4932498;28;92912;-52
2023/01/07 03:11:03;;;;;;;68.60;50.53;;;16.30;83.30;;;;;;4924585;28;89785;-52
2023/01/07 03:13:34;;;;;;;68.07;50.50;;;16.30;83.20;;;;;;4919583;28;92381;-48
2023/01/07 03:16:07;;;;;;;67.35;50.40;;;16.30;83.20;;;;;;4919155;28;90038;-52
2023/01/07 03:18:39;;;;;;;67.65;50.35;;;16.30;83.10;;;;;;4920008;28;92731;-48
2023/01/07 03:21:10;;;;;;;69.75;50.50;;;16.30;83.10;;;;;;4924958;28;90802;-49
2023/01/07 03:23:40;;;;;;;67.95;50.65;;;16.30;83.20;;;;;;4919938;28;89481;-50
2023/01/07 03:26:07;;;;;;;67.65;50.53;;;16.30;83.20;;;;;;4913401;28;92140;-52
2023/01/07 03:28:39;;;;;;;67.40;50.45;;;16.30;83.10;;;;;;4921863;28;90557;-53
2023/01/07 03:31:06;;;;;;;;;;;16.30;83.00;;;;;;4929997;28;92747;-50
2023/01/07 03:34:00;;;;;;;67.13;50.53;;;16.20;82.90;;;;;;4929558;28;91291;-53
2023/01/07 03:36:35;;;;;;;67.72;50.70;;;16.20;83.10;;;;;;4931490;28;91009;-52
2023/01/07 03:39:01;;;;;;;67.75;50.35;;;16.20;83.00;;;;;;4922648;28;92998;-52
2023/01/07 03:44:11;;;;;;;67.65;50.58;;;16.20;83.00;;;;;;4910246;28;92525;-52
2023/01/07 03:46:38;;;;;;;67.30;50.40;;;16.20;82.80;;;;;;4925938;28;92792;-46
2023/01/07 03:49:04;;;;;;;67.93;50.55;;;16.20;82.90;;;;;;4917323;28;92076;-51
2023/01/07 03:51:29;;;;;;;67.13;50.65;;;16.20;82.90;;;;;;4926658;28;95688;-50
2023/01/07 03:53:55;;;;;;;66.93;50.40;;;16.20;82.80;;;;;;4915097;28;91740;-51
2023/01/07 03:56:20;;;;;;;66.55;50.05;;;16.20;82.80;;;;;;4922425;28;91959;-52
2023/01/07 03:58:46;;;;;;;67.90;50.58;;;16.20;82.80;;;;;;4916048;28;90154;-53
2023/01/07 04:01:12;;;;;;;67.82;50.60;;;16.20;82.90;;;;;;4920959;28;90063;-52
2023/01/07 04:03:37;;;;;;;67.97;50.42;;;16.20;82.80;;;;;;4925074;28;91249;-49
2023/01/07 04:06:03;;;;;;;67.18;50.22;;;16.20;82.70;;;;;;4921984;28;90426;-53
2023/01/07 04:08:29;;;;;;;67.70;50.40;;;16.20;82.70;;;;;;4932312;28;90531;-53
2023/01/07 04:10:54;;;;;;;66.60;49.90;;;16.20;82.60;;;;;;4916825;28;92881;-47
2023/01/07 04:13:20;;;;;;;66.22;49.83;;;16.20;82.60;;;;;;4924518;28;89313;-47
2023/01/07 04:15:46;;;;;;;66.88;50.17;;;16.10;82.50;;;;;;4917712;28;92933;-51
2023/01/07 04:18:11;;;;;;;66.75;50.38;;;16.20;82.60;;;;;;4912413;28;92641;-51
2023/01/07 04:20:37;;;;;;;67.40;50.80;;;16.20;82.60;;;;;;4918421;28;94580;-52
2023/01/07 04:23:02;;;;;;;66.97;50.25;;;16.10;82.50;;;;;;4915642;28;90688;-51
2023/01/07 04:25:30;;;;;;;66.80;50.38;;;16.10;82.50;;;;;;4918053;28;89944;-52
2023/01/07 04:27:56;;;;;;;66.35;50.05;;;16.10;82.50;;;;;;4926009;28;91390;-54
2023/01/07 04:30:22;;;;;;;66.50;50.05;;;16.10;82.50;;;;;;4924383;28;90047;-47
2023/01/07 04:32:47;;;;;;;66.45;49.92;;;16.10;82.50;;;;;;4920505;28;91599;-53
2023/01/07 04:35:13;;;;;;;67.35;50.08;;;16.10;82.50;;;;;;4918169;28;95755;-51
2023/01/07 04:37:39;;;;;;;67.03;50.75;;;16.10;82.40;;;;;;4920542;28;95460;-48
2023/01/07 04:40:05;;;;;;;66.80;50.25;;;16.10;82.40;;;;;;4922941;28;95863;-54
2023/01/07 04:42:31;;;;;;;67.25;49.75;;;16.10;82.40;;;;;;4906092;28;100090;-46
2023/01/07 04:44:56;;;;;;;67.30;50.20;;;16.10;82.40;;;;;;4908141;28;96843;-50
2023/01/07 04:47:22;;;;;;;66.18;49.78;;;16.10;82.30;;;;;;4922371;28;96842;-50
2023/01/07 04:49:47;;;;;;;66.03;49.95;;;16.10;82.30;;;;;;4922471;28;97444;-48
2023/01/07 04:52:13;;;;;;;68.22;50.28;;;16.10;82.20;;;;;;4906892;28;95151;-52
2023/01/07 04:54:39;;;;;;;66.43;50.13;;;16.10;82.30;;;;;;4911651;28;98329;-49
2023/01/07 04:57:04;;;;;;;67.25;50.20;;;16.10;82.40;;;;;;4912341;28;95314;-55
2023/01/07 04:59:30;;;;;;;67.75;50.63;;;16.10;82.30;;;;;;4911660;28;95375;-53
2023/01/07 05:01:55;;;;;;;66.63;50.05;;;16.10;82.20;;;;;;4910634;28;94722;-49
2023/01/07 05:04:21;;;;;;;66.50;50.00;;;16.10;82.10;;;;;;4922434;28;96306;-49
2023/01/07 05:06:47;;;;;;;67.90;50.45;;;16.10;82.00;;;;;;4920577;28;95518;-50
2023/01/07 05:09:12;;;;;;;66.53;50.15;;;16.10;82.10;;;;;;4918579;28;96407;-55
2023/01/07 05:11:38;;;;;;;67.03;50.22;;;16.10;82.20;;;;;;4918406;28;97154;-49
2023/01/07 05:14:04;;;;;;;67.03;49.83;;;16.00;82.00;;;;;;4915444;28;95650;-53
2023/01/07 05:16:29;;;;;;;66.38;50.03;;;16.00;82.10;;;;;;4913431;28;98697;-53
2023/01/07 05:18:55;;;;;;;65.88;50.05;;;16.00;82.00;;;;;;4912207;28;95615;-54
2023/01/07 05:21:21;;;;;;;66.25;49.85;;;16.10;81.90;;;;;;4923981;28;95152;-50
2023/01/07 05:23:46;;;;;;;65.88;49.95;;;16.00;81.90;;;;;;4917148;28;96758;-52
2023/01/07 05:26:12;;;;;;;66.28;49.67;;;16.00;81.90;;;;;;4923597;28;96836;-48
2023/01/07 05:28:37;;;;;;;65.95;49.97;;;16.10;82.00;;;;;;4915219;28;101029;-49
2023/01/07 05:31:03;;;;;;;66.03;50.05;;;16.00;81.90;;;;;;4920808;28;98582;-49
2023/01/07 05:33:29;;;;;;;66.68;49.78;;;16.00;81.80;;;;;;4907154;28;96756;-52
2023/01/07 05:35:55;;;;;;;65.97;49.63;;;16.00;81.80;;;;;;4916634;28;96462;-52
2023/01/07 05:38:20;;;;;;;66.95;50.25;;;16.00;81.80;;;;;;4921568;28;96660;-49
2023/01/07 05:40:48;;;;;;;66.28;49.83;;;16.00;81.80;;;;;;4919592;28;98864;-52
2023/01/07 05:43:14;;;;;;;65.57;49.55;;;16.00;81.70;;;;;;4910095;28;98689;-51
2023/01/07 05:45:42;;;;;;;66.88;50.45;;;16.00;81.70;;;;;;4928998;28;96041;-53
2023/01/07 05:48:08;;;;;;;67.07;50.03;;;16.00;81.60;;;;;;4923046;28;96422;-52
2023/01/07 05:50:34;;;;;;;66.35;49.65;;;16.00;81.80;;;;;;4912969;28;96970;-51
2023/01/07 05:52:59;;;;;;;66.63;50.22;;;16.00;81.70;;;;;;4905235;28;99234;-50
2023/01/07 05:55:25;;;;;;;67.00;49.75;;;16.00;81.60;;;;;;4923661;28;95898;-46
2023/01/07 05:57:50;;;;;;;65.82;49.70;;;16.00;81.60;;;;;;4919365;28;96097;-49
2023/01/07 06:00:17;;;;;;;65.90;49.75;;;16.00;81.60;;;;;;4914028;28;96352;-50
2023/01/07 06:02:43;;;;;;;66.43;49.83;;;16.00;81.60;;;;;;4907440;28;97983;-49
2023/01/07 06:05:09;;;;;;;66.43;49.78;;;16.00;81.60;;;;;;4925542;28;95163;-52
2023/01/07 06:07:35;;;;;;;65.90;49.72;;;15.90;81.50;;;;;;4914442;28;95879;-50
2023/01/07 06:10:00;;;;;;;66.22;49.83;;;16.00;81.60;;;;;;4917861;28;96351;-48
2023/01/07 06:12:26;;;;;;;66.28;49.92;;;16.00;81.50;;;;;;4916963;28;95552;-49
2023/01/07 06:14:51;;;;;;;66.10;49.65;;;15.90;81.40;;;;;;4922461;28;96045;-49
2023/01/07 06:17:17;;;;;;;66.93;50.10;;;15.90;81.40;;;;;;4909783;28;95537;-46
2023/01/07 06:19:43;;;;;;;66.15;49.85;;;15.90;81.40;;;;;;4918774;28;96252;-52
2023/01/07 06:22:08;;;;;;;65.85;49.75;;;15.90;81.40;;;;;;4920981;28;97040;-49
2023/01/07 06:24:34;;;;;;;67.22;50.63;;;15.90;81.50;;;;;;4922751;28;96061;-51
2023/01/07 06:26:59;;;;;;;66.20;50.00;;;15.90;81.40;;;;;;4907702;28;96120;-51
2023/01/07 06:29:25;;;;;;;66.38;49.72;;;15.90;81.40;;;;;;4924041;28;96477;-47
2023/01/07 06:31:51;;;;;;;65.68;49.72;;;15.90;81.30;;;;;;4908347;28;96647;-51
2023/01/07 06:34:16;;;;;;;66.30;50.03;;;15.90;81.40;;;;;;4915626;28;95062;-49
2023/01/07 06:36:42;;;;;;;65.85;49.83;;;15.90;81.40;;;;;;4920056;28;95074;-49
2023/01/07 06:39:08;;;;;;;65.82;49.67;;;15.90;81.20;;;;;;4926262;28;94589;-50
2023/01/07 06:41:33;;;;;;;66.88;49.85;;;15.90;81.40;;;;;;4929426;28;95322;-51
2023/01/07 06:43:59;;;;;;;65.97;49.65;;;15.90;81.30;;;;;;4910221;28;98027;-52
2023/01/07 06:46:25;;;;;;;65.88;49.67;;;15.90;81.30;;;;;;4917844;28;97533;-52
2023/01/07 06:48:50;;;;;;;65.95;49.83;;;15.80;81.20;;;;;;4927779;28;97412;-53
2023/01/07 06:51:16;;;;;;;66.43;49.58;;;15.90;81.30;;;;;;4919574;28;98035;-49
2023/01/07 06:53:42;;;;;;;65.97;49.72;;;15.80;81.20;;;;;;4920980;28;96326;-49
2023/01/07 06:56:07;;;;;;;67.57;49.88;;;15.90;81.10;;;;;;4925584;28;95680;-50
2023/01/07 06:58:33;;;;;;;69.50;49.88;;;15.90;81.20;;;;;;4917533;28;95363;-53
2023/01/07 07:01:06;;;;;;;66.78;49.88;;;15.90;81.20;;;;;;4927707;28;95990;-49
2023/01/07 07:03:31;;;;;;;66.43;49.58;;;15.90;81.20;;;;;;4923124;28;100222;-53
2023/01/07 07:05:57;;;;;;;65.65;49.90;;;15.90;81.20;;;;;;4926637;28;97245;-51
2023/01/07 07:08:23;;;;;;;66.03;49.92;;;15.90;81.10;;;;;;4917539;28;96685;-49
2023/01/07 07:10:48;;;;;;;66.40;50.05;;;15.80;81.10;;;;;;4915561;28;97158;-52
2023/01/07 07:13:14;;;;;;;65.95;49.80;;;15.80;81.10;;;;;;4921139;28;95261;-51
2023/01/07 07:15:40;;;;;;;65.85;49.53;;;15.80;81.10;;;;;;4916286;28;99673;-48
2023/01/07 07:18:05;;;;;;;66.20;50.03;;;15.80;81.10;;;;;;4926411;28;96447;-49
2023/01/07 07:20:31;;;;;;;68.00;49.65;;;15.80;81.00;;;;;;4924068;28;99385;-46
2023/01/07 07:22:57;;;;;;;66.78;49.70;;;15.80;81.10;;;;;;4925038;28;97231;-51
2023/01/07 07:25:22;;;;;;;66.05;49.83;;;15.80;81.10;;;;;;4916939;28;98497;-50
2023/01/07 07:27:48;;;;;;;65.47;49.53;;;15.80;81.10;;;;;;4915469;28;94662;-50
2023/01/07 07:30:14;;;;;;;67.50;49.63;;;15.90;81.10;;;;;;4918184;28;98483;-51
2023/01/07 07:32:41;;;;;;;68.38;49.75;;;15.80;81.00;;;;;;4916227;28;95676;-52
2023/01/07 07:35:07;;;;;;;67.63;49.95;;;15.80;81.00;;;;;;4920416;28;99076;-52
2023/01/07 07:37:32;;;;;;;66.18;50.00;;;15.80;81.00;;;;;;4921346;28;95233;-52
2023/01/07 07:39:58;;;;;;;66.20;49.63;;;15.80;80.90;;;;;;4922373;28;96804;-51
2023/01/07 07:42:23;;;;;;;66.95;49.88;;;15.80;81.00;;;;;;4916034;28;100299;-53
2023/01/07 07:44:49;;;;;;;66.20;49.70;;;15.80;80.90;;;;;;4916034;28;99585;-51
2023/01/07 07:47:15;;;;;;;67.03;49.55;;;15.80;80.90;;;;;;4924317;28;95257;-46
2023/01/07 07:49:41;;;;;;;66.90;50.03;;;15.80;81.00;;;;;;4915667;28;97454;-51
2023/01/07 07:52:07;;;;;;;67.00;49.92;;;15.80;80.90;;;;;;4917793;28;98679;-50
2023/01/07 07:54:33;;;;;;;67.82;50.28;;;15.80;81.00;;;;;;4918284;28;95797;-49
2023/01/07 07:56:59;;;;;;;65.65;49.92;;;15.70;80.90;;;;;;4924797;28;96576;-48
2023/01/07 07:59:25;;;;;;;66.47;49.78;;;15.80;80.90;;;;;;4909030;28;96450;-53
2023/01/07 08:01:50;;;;;;;67.97;49.40;;;15.70;80.90;;;;;;4915563;28;96234;-47
2023/01/07 08:04:16;;;;;;;67.47;50.33;;;15.80;80.80;;;;;;4924439;28;95883;-49
2023/01/07 08:06:42;;;;;;;66.20;49.88;;;15.80;80.90;;;;;;4919706;28;95238;-53
2023/01/07 08:09:08;;;;;;;71.10;49.85;;;15.80;80.90;;;;;;4912916;28;99337;-48
2023/01/07 08:11:33;;;;;;;66.75;49.92;;;15.70;81.00;;;;;;4912654;28;95770;-50
2023/01/07 08:13:59;;;;;;;65.75;49.35;;;15.80;81.10;;;;;;4925881;28;95554;-52
2023/01/07 08:16:25;;;;;;;67.30;49.63;;;15.70;81.10;;;;;;4929716;28;94577;-53
2023/01/07 08:18:50;;;;;;;67.97;49.75;;;15.70;81.10;;;;;;4913239;28;97436;-53
2023/01/07 08:21:16;;;;;;;66.47;49.67;;;15.70;81.00;;;;;;4921760;28;97356;-47
2023/01/07 08:23:42;;;;;;;68.05;49.70;;;15.70;81.00;;;;;;4922709;28;96040;-49
2023/01/07 08:26:07;;;;;;;66.82;49.92;;;15.70;80.90;;;;;;4918211;28;96707;-52
2023/01/07 08:28:33;;;;;;;65.50;49.42;;;15.70;81.00;;;;;;4914267;28;95491;-47
2023/01/07 08:31:03;;;;;;;65.95;49.45;;;15.70;80.90;;;;;;4920069;28;95070;-51
2023/01/07 08:33:30;;;;;;;68.25;49.78;;;15.70;80.90;;;;;;4918288;28;96701;-49
2023/01/07 08:35:55;;;;;;;66.35;49.88;;;15.60;80.90;;;;;;4920020;28;97350;-51
2023/01/07 08:38:21;;;;;;;69.10;49.97;;;15.70;81.00;;;;;;4916553;28;95726;-48
2023/01/07 08:40:48;;;;;;;66.60;49.58;;;15.70;80.90;;;;;;4915366;28;95422;-49
2023/01/07 08:43:13;;;;;;;68.60;49.72;;;15.70;81.00;;;;;;4915548;28;99407;-53
2023/01/07 08:45:39;;;;;;;68.20;49.67;;;15.70;80.90;;;;;;4907597;28;97446;-48
2023/01/07 08:48:05;;;;;;;66.65;49.30;;;15.70;80.90;;;;;;4913815;28;98659;-46
2023/01/07 08:50:32;;;;;;;67.60;49.70;;;15.70;80.60;;;;;;4917342;28;96403;-48
2023/01/07 08:52:59;;;;;;;66.65;49.63;;;15.70;80.70;;;;;;4923885;28;97099;-51
2023/01/07 08:55:24;;;;;;;66.03;49.88;;;15.70;80.60;;;;;;4914852;28;95087;-47
2023/01/07 08:57:50;;;;;;;66.15;49.88;;;15.70;80.70;;;;;;4922529;28;95343;-50
2023/01/07 09:00:18;;;;;;;65.72;49.50;;;15.70;80.70;;;;;;4919147;28;95928;-47
2023/01/07 09:02:44;;;;;;;66.45;49.50;;;15.70;80.70;;;;;;4919780;28;96586;-50
2023/01/07 09:05:11;;;;;;;65.72;49.78;;;15.70;80.60;;;;;;4926198;28;95191;-48
2023/01/07 09:07:37;;;;;;;66.60;49.35;;;15.70;80.60;;;;;;4917260;28;96706;-52
2023/01/07 09:10:02;;;;;;;65.95;49.13;;;15.60;80.50;;;;;;4916025;28;97783;-51
2023/01/07 09:12:28;;;;;;;69.50;50.05;;;15.70;80.50;;;;;;4913496;28;96177;-49
2023/01/07 09:14:54;;;;;;;66.45;49.65;;;15.70;80.50;;;;;;4920153;28;95051;-49
2023/01/07 09:17:20;;;;;;;65.72;49.75;;;15.70;80.40;;;;;;4918662;28;95534;-51
2023/01/07 09:19:45;;;;;;;66.13;49.53;;;15.70;80.40;;;;;;4910969;28;98223;-51
2023/01/07 09:22:11;;;;;;;67.32;49.42;;;15.70;80.30;;;;;;4924973;28;98921;-46
2023/01/07 09:24:37;;;;;;;65.95;49.63;;;15.70;80.30;;;;;;4912351;28;96247;-49
2023/01/07 09:27:02;;;;;;;65.88;49.50;;;15.70;80.30;;;;;;4918807;28;97847;-51
2023/01/07 09:29:28;;;;;;;66.35;49.75;;;15.70;80.30;;;;;;4925249;28;94474;-49
2023/01/07 09:31:54;;;;;;;67.25;49.45;;;15.70;80.10;;;;;;4922974;28;96004;-46
2023/01/07 09:34:19;;;;;;;65.57;49.53;;;15.70;80.00;;;;;;4913154;28;97112;-51
2023/01/07 09:36:45;;;;;;;65.50;49.58;;;15.70;79.90;;;;;;4913712;28;96344;-51
2023/01/07 09:39:11;;;;;;;65.40;49.45;;;15.70;80.00;;;;;;4917466;28;98680;-50
2023/01/07 09:41:50;;;;;;;65.95;49.65;;;15.70;79.90;;;;;;4914955;28;95258;-46
2023/01/07 09:44:28;;;;;;;66.18;49.95;;;15.80;80.00;;;;;;4913986;28;97947;-50
2023/01/07 09:46:55;;;;;;;65.78;49.42;;;15.80;79.80;;;;;;4905600;28;96935;-51
2023/01/07 09:49:27;;;;;;;66.30;49.38;;;15.80;79.60;;;;;;4911876;28;96115;-51
2023/01/07 09:51:58;;;;;;;;;;;15.80;79.70;;;;;;4925111;28;95667;-50
2023/01/07 09:54:31;;;;;;;65.83;49.07;;;15.80;79.70;;;;;;4921427;28;94921;-49
2023/01/07 09:56:57;;;;;;;67.88;49.28;;;15.80;79.60;;;;;;4911349;28;97541;-49
2023/01/07 09:59:23;;;;;;;65.43;49.67;;;15.80;80.00;;;;;;4912840;28;97050;-49
2023/01/07 10:02:20;;;;;;;65.80;49.35;;;15.80;80.00;;;;;;4919968;28;95911;-51
2023/01/07 10:05:10;;;;;;;65.45;49.45;;;15.80;80.00;;;;;;4918590;28;95305;-50
2023/01/07 10:07:44;;;;;;;66.57;49.95;;;15.80;79.90;;;;;;4913684;28;97792;-50
2023/01/07 10:10:40;;;;;;;65.53;49.25;;;15.80;80.00;;;;;;4924415;28;98360;-53
2023/01/07 10:13:24;;;;;;;66.45;49.65;;;15.80;80.00;;;;;;4920467;28;97385;-53
2023/01/07 10:16:17;;;;;;;66.00;49.67;;;15.80;80.00;;;;;;4920212;28;97646;-52
2023/01/07 10:18:57;;;;;;;66.13;49.55;;;15.80;79.80;;;;;;4919170;28;97864;-52
2023/01/07 10:21:26;;;;;;;65.28;49.17;;;15.80;80.00;;;;;;4917194;28;96271;-51
2023/01/07 10:24:02;;;;;;;66.05;49.63;;;15.90;80.00;;;;;;4912650;28;95903;-53
2023/01/07 10:26:45;;;;;;;68.03;49.83;;;16.00;79.60;;;;;;4919686;28;96969;-49
2023/01/07 10:29:21;;;;;;;66.75;49.50;;;16.10;79.40;;;;;;4910710;28;97376;-54
2023/01/07 10:31:48;;;;;;;65.78;49.80;;;16.10;79.30;;;;;;4913234;28;96136;-53
2023/01/07 10:34:22;;;;;;;67.95;49.63;;;16.10;79.20;;;;;;4916056;28;94988;-52
2023/01/07 10:36:48;;;;;;;66.22;49.70;;;16.10;79.20;;;;;;4907333;28;97399;-50
2023/01/07 10:39:20;;;;;;;67.53;49.78;;;16.10;79.30;;;;;;4911081;28;95228;-47
2023/01/07 10:42:01;;;;;;;;;;;16.10;78.90;;;;;;4915916;28;98536;-49
2023/01/07 10:44:43;;;;;;;69.35;50.15;;;16.10;78.90;;;;;;4920477;28;95121;-49
2023/01/07 10:47:27;;;;;;;;;;;16.10;79.20;;;;;;4924109;28;94055;-51
2023/01/07 10:50:06;;;;;;;66.53;49.63;;;16.10;78.90;;;;;;4919793;28;97523;-53
2023/01/07 10:52:43;;;;;;;68.28;49.28;;;16.10;78.80;;;;;;4921183;28;99146;-50
2023/01/07 10:55:23;;;;;;;68.25;49.92;;;16.10;78.80;;;;;;4919283;28;97635;-50
2023/01/07 10:57:48;;;;;;;67.00;49.92;;;16.20;78.80;;;;;;4915425;28;96939;-51
2023/01/07 11:00:16;;;;;;;67.20;49.72;;;16.20;78.60;;;;;;4920147;28;95890;-50
2023/01/07 11:02:47;;;;;;;69.63;49.92;;;16.20;78.50;;;;;;4919853;28;97215;-51
2023/01/07 11:05:13;;;;;;;67.07;50.17;;;16.30;78.50;;;;;;4918678;28;95318;-50
2023/01/07 11:07:51;;;;;;;71.90;50.13;;;16.30;78.40;;;;;;4925420;28;94774;-52
2023/01/07 11:10:20;;;;;;;67.78;50.30;;;16.30;78.40;;;;;;4906262;28;97142;-48
2023/01/07 11:12:50;;;;;;;70.13;49.97;;;16.30;78.30;;;;;;4924531;28;95989;-48
2023/01/07 11:15:22;;;;;;;66.82;49.42;;;16.30;78.10;;;;;;4925490;28;95208;-50
2023/01/07 11:17:55;;;;;;;67.10;49.90;;;16.30;78.10;;;;;;4921794;28;94742;-52
2023/01/07 11:20:43;;;;;;;67.55;49.80;;;16.40;78.10;;;;;;4920652;28;97683;-50
2023/01/07 11:23:42;;;;;;;70.68;50.67;;;16.50;77.90;;;;;;4930276;28;95951;-49
2023/01/07 11:26:15;;;;;;;69.60;50.35;;;16.50;77.80;;;;;;4915608;28;95992;-47
2023/01/07 11:28:56;;;;;;;70.25;50.38;;;16.50;77.80;;;;;;4913647;28;95058;-52
2023/01/07 11:31:42;;;;;;;70.80;50.17;;;16.50;78.10;;;;;;4921811;28;96072;-51
2023/01/07 11:34:36;;;;;;;71.65;50.67;;;16.50;78.40;;;;;;4921633;28;98137;-53
2023/01/07 11:37:03;;;;;;;73.20;51.00;;;16.60;78.50;;;;;;4903855;28;99083;-46
2023/01/07 11:39:34;;;;;;;72.97;51.75;;;16.50;78.60;;;;;;4926228;28;93931;-48
2023/01/07 11:45:27;;;;;;;78.18;52.45;;;16.50;80.00;;;;;;4918093;28;97138;-50
2023/01/07 11:48:04;;;;;;;80.13;52.90;;;16.50;80.40;;;;;;4926062;28;99752;-51
2023/01/07 11:50:43;;;;;;;78.20;53.28;;;16.50;80.80;;;;;;4905959;28;96193;-48
2023/01/07 11:53:14;;;;;;;78.20;52.95;;;16.50;81.20;;;;;;4920159;28;98855;-49
2023/01/07 11:55:53;;;;;;;;;;;16.50;81.10;;;;;;4924019;28;95479;-53
2023/01/07 11:58:19;;;;;;;78.93;53.03;;;16.50;81.30;;;;;;4924010;28;95474;-51
2023/01/07 12:00:45;;;;;;;79.45;53.10;;;16.50;81.20;;;;;;4929264;28;96839;-52
2023/01/07 12:03:13;;;;;;;76.85;52.78;;;16.50;81.40;;;;;;4919423;28;96044;-48
2023/01/07 12:05:40;;;;;;;78.05;52.97;;;16.50;81.40;;;;;;4924314;28;95850;-52
2023/01/07 12:08:17;;;;;;;77.97;52.65;;;16.50;81.50;;;;;;4917912;28;95697;-48
2023/01/07 12:10:43;;;;;;;77.65;52.83;;;16.50;81.40;;;;;;4924503;28;96514;-48
2023/01/07 12:13:22;;;;;;;80.75;52.88;;;16.50;81.50;;;;;;4916948;28;98190;-52
2023/01/07 12:16:00;;;;;;;79.63;52.90;;;16.50;81.20;;;;;;4925390;28;95563;-52
2023/01/07 12:18:48;;;;;;;74.82;52.95;;;16.40;81.30;;;;;;4939555;28;94706;-53
2023/01/07 12:21:14;;;;;;;79.25;52.78;;;16.40;81.20;;;;;;4914680;28;95597;-52
2023/01/07 12:23:55;;;;;;;76.30;53.30;;;16.40;81.10;;;;;;4923597;28;98605;-50
2023/01/07 12:26:47;;;;;;;76.32;52.33;;;16.40;81.20;;;;;;4918988;28;95144;-45
2023/01/07 12:29:35;;;;;;;;;;;16.40;81.00;;;;;;4917085;28;95015;-49
2023/01/07 12:32:27;;;;;;;75.80;52.35;;;16.40;81.10;;;;;;4930864;28;94891;-47
2023/01/07 12:35:00;;;;;;;72.32;52.13;;;16.40;81.00;;;;;;4929631;28;98460;-46
2023/01/07 12:37:31;;;;;;;78.20;53.47;;;16.40;81.00;;;;;;4933491;28;94965;-49
2023/01/07 12:40:11;;;;;;;75.90;52.15;;;16.40;81.10;;;;;;4915710;28;99123;-53
2023/01/07 12:42:40;;;;;;;73.32;52.05;;;16.30;81.00;;;;;;4913728;28;97666;-51
2023/01/07 12:45:20;;;;;;;76.57;52.25;;;16.30;81.00;;;;;;4925160;28;98596;-50
2023/01/07 12:47:58;;;;;;;75.43;52.33;;;16.30;81.00;;;;;;4925884;28;95415;-48